createdAt,value
2019-05-03T00:01:42.034Z,93.20
2019-05-03T00:04:13.042Z,93.40
2019-05-03T00:06:42.718Z,93.10
2019-05-03T00:09:13.775Z,93.10
2019-05-03T00:11:43.203Z,93.00
2019-05-03T00:14:12.926Z,93.00
2019-05-03T00:16:44.054Z,93.00
2019-05-03T00:19:14.119Z,93.00
2019-05-03T00:21:44.497Z,93.10
2019-05-03T00:24:14.319Z,93.00
2019-05-03T00:26:43.746Z,93.10
2019-05-03T00:29:13.145Z,93.10
2019-05-03T00:31:42.553Z,93.20
2019-05-03T00:34:13.593Z,93.30
2019-05-03T00:36:50.186Z,93.30
2019-05-03T00:39:23.953Z,93.40
2019-05-03T00:41:53.378Z,93.40
2019-05-03T00:44:22.854Z,93.40
2019-05-03T00:46:52.265Z,93.50
2019-05-03T00:49:22.620Z,93.50
2019-05-03T00:51:52.121Z,93.50
2019-05-03T00:54:22.311Z,93.50
2019-05-03T00:56:52.228Z,93.50
2019-05-03T00:59:22.174Z,93.50
2019-05-03T01:01:52.173Z,93.50
2019-05-03T01:04:22.716Z,93.40
2019-05-03T01:06:54.772Z,93.40
2019-05-03T01:09:24.757Z,93.40
2019-05-03T01:11:54.166Z,93.40
2019-05-03T01:14:23.633Z,93.40
2019-05-03T01:16:53.040Z,93.50
2019-05-03T01:19:22.788Z,93.40
2019-05-03T01:21:52.210Z,93.40
2019-05-03T01:24:21.820Z,93.40
2019-05-03T01:26:52.580Z,93.40
2019-05-03T01:29:22.808Z,93.40
2019-05-03T01:31:52.818Z,93.30
2019-05-03T01:34:22.341Z,93.30
2019-05-03T01:36:51.948Z,93.30
2019-05-03T01:39:22.227Z,93.40
2019-05-03T01:41:52.926Z,93.30
2019-05-03T01:44:26.871Z,93.30
2019-05-03T01:46:57.912Z,93.30
2019-05-03T01:49:28.964Z,93.40
2019-05-03T01:52:02.087Z,93.40
2019-05-03T01:54:32.133Z,93.50
2019-05-03T01:57:02.463Z,93.60
2019-05-03T01:59:32.167Z,93.70
2019-05-03T02:02:03.253Z,93.60
2019-05-03T02:04:34.348Z,93.60
2019-05-03T02:07:03.893Z,94.00
2019-05-03T02:09:33.377Z,93.90
2019-05-03T02:12:02.778Z,94.00
2019-05-03T02:14:32.170Z,94.30
2019-05-03T02:17:02.786Z,94.00
2019-05-03T02:19:34.515Z,94.10
2019-05-03T02:22:04.030Z,94.10
2019-05-03T02:24:34.522Z,94.20
2019-05-03T02:27:05.402Z,94.10
2019-05-03T02:29:34.826Z,94.30
2019-05-03T02:32:04.214Z,94.30
2019-05-03T02:34:33.601Z,94.10
2019-05-03T02:37:03.375Z,94.10
2019-05-03T02:39:33.583Z,94.00
2019-05-03T02:42:10.862Z,94.10
2019-05-03T02:44:35.714Z,94.20
2019-05-03T02:47:06.750Z,94.20
2019-05-03T02:49:37.801Z,94.30
2019-05-03T02:52:07.218Z,94.30
2019-05-03T02:54:36.615Z,94.30
2019-05-03T02:57:06.444Z,94.20
2019-05-03T02:59:35.882Z,94.30
2019-05-03T03:02:06.409Z,94.30
2019-05-03T03:04:35.990Z,94.30
2019-05-03T03:07:06.245Z,94.50
2019-05-03T03:09:36.130Z,94.40
2019-05-03T03:12:07.022Z,94.40
2019-05-03T03:14:37.459Z,94.40
2019-05-03T03:17:08.452Z,94.30
2019-05-03T03:19:39.474Z,94.40
2019-05-03T03:22:11.251Z,94.50
2019-05-03T03:24:45.938Z,94.40
2019-05-03T03:27:17.887Z,94.40
2019-05-03T03:29:50.360Z,94.40
2019-05-03T03:32:29.252Z,94.50
2019-05-03T03:35:11.176Z,94.40
2019-05-03T03:37:36.536Z,94.30
2019-05-03T03:40:06.362Z,94.50
2019-05-03T03:42:37.395Z,94.40
2019-05-03T03:45:07.029Z,94.40
2019-05-03T03:47:39.255Z,94.40
2019-05-03T03:50:11.534Z,94.40
2019-05-03T03:52:41.985Z,94.40
2019-05-03T03:55:11.729Z,94.40
2019-05-03T03:57:42.655Z,94.40
2019-05-03T04:00:16.230Z,94.40
2019-05-03T04:02:46.030Z,94.40
2019-05-03T04:05:17.059Z,94.30
2019-05-03T04:07:47.987Z,94.40
2019-05-03T04:10:17.405Z,94.40
2019-05-03T04:12:47.952Z,94.70
2019-05-03T04:15:37.253Z,94.30
2019-05-03T04:18:12.222Z,94.40
2019-05-03T04:20:41.919Z,94.40
2019-05-03T04:23:11.522Z,94.30
2019-05-03T04:25:41.066Z,94.40
2019-05-03T04:28:10.478Z,94.40
2019-05-03T04:30:39.852Z,94.50
2019-05-03T04:33:09.259Z,94.40
2019-05-03T04:35:38.647Z,94.50
2019-05-03T04:38:08.041Z,94.50
2019-05-03T04:40:37.448Z,94.50
2019-05-03T04:43:06.954Z,94.60
2019-05-03T04:45:36.875Z,94.70
2019-05-03T04:48:06.671Z,94.60
2019-05-03T04:50:36.840Z,94.60
2019-05-03T04:53:06.360Z,94.90
2019-05-03T04:55:36.894Z,94.70
2019-05-03T04:58:06.302Z,94.60
2019-05-03T05:00:37.382Z,94.70
2019-05-03T05:03:06.796Z,94.70
2019-05-03T05:05:36.531Z,94.70
2019-05-03T05:08:06.267Z,94.80
2019-05-03T05:10:36.219Z,94.70
2019-05-03T05:13:05.901Z,94.80
2019-05-03T05:15:36.136Z,94.80
2019-05-03T05:18:16.151Z,94.80
2019-05-03T05:20:56.218Z,94.80
2019-05-03T05:23:25.515Z,95.00
2019-05-03T05:25:59.410Z,94.90
2019-05-03T05:28:33.071Z,95.00
2019-05-03T05:31:04.810Z,95.10
2019-05-03T05:33:35.354Z,95.10
2019-05-03T05:36:04.960Z,95.10
2019-05-03T05:38:37.260Z,95.30
2019-05-03T05:41:09.405Z,95.10
2019-05-03T05:43:38.702Z,95.20
2019-05-03T05:46:08.022Z,95.10
2019-05-03T05:48:38.978Z,94.70
2019-05-03T05:51:08.279Z,94.70
2019-05-03T05:53:40.796Z,94.70
2019-05-03T05:56:15.785Z,94.70
2019-05-03T05:58:46.854Z,94.70
2019-05-03T06:01:20.910Z,94.70
2019-05-03T06:03:54.972Z,94.80
2019-05-03T06:06:31.322Z,94.70
2019-05-03T06:09:02.262Z,95.00
2019-05-03T06:11:36.107Z,95.00
2019-05-03T06:14:15.726Z,95.30
2019-05-03T06:16:55.566Z,95.00
2019-05-03T06:19:26.553Z,95.00
2019-05-03T06:22:09.619Z,95.00
2019-05-03T06:24:45.134Z,95.00
2019-05-03T06:27:31.065Z,95.00
2019-05-03T06:30:02.079Z,95.00
2019-05-03T06:32:37.502Z,94.90
2019-05-03T06:35:10.281Z,94.90
2019-05-03T06:37:46.028Z,95.00
2019-05-03T06:40:15.704Z,95.20
2019-05-03T06:42:52.502Z,95.00
2019-05-03T06:45:17.552Z,95.00
2019-05-03T06:47:51.744Z,94.90
2019-05-03T06:50:25.268Z,95.00
2019-05-03T06:52:52.034Z,95.00
2019-05-03T06:55:21.465Z,95.00
2019-05-03T06:57:50.824Z,95.00
2019-05-03T07:00:37.258Z,95.10
2019-05-03T07:03:25.953Z,95.20
2019-05-03T07:06:14.980Z,95.20
2019-05-03T07:08:51.586Z,95.20
2019-05-03T07:11:20.870Z,95.30
2019-05-03T07:13:50.336Z,95.30
2019-05-03T07:16:19.639Z,95.10
2019-05-03T07:18:49.051Z,95.20
2019-05-03T07:21:18.393Z,95.30
2019-05-03T07:23:48.027Z,95.20
2019-05-03T07:26:17.391Z,94.90
2019-05-03T07:28:50.123Z,94.80
2019-05-03T07:31:20.159Z,94.70
2019-05-03T07:33:55.028Z,94.50
2019-05-03T07:36:28.050Z,94.60
2019-05-03T07:38:55.693Z,94.60
2019-05-03T07:41:27.160Z,94.60
2019-05-03T07:43:56.006Z,94.40
2019-05-03T07:46:25.296Z,94.70
2019-05-03T07:48:54.915Z,94.70
2019-05-03T07:51:24.865Z,94.70
2019-05-03T07:53:55.595Z,95.00
2019-05-03T07:56:32.458Z,95.20
2019-05-03T07:59:06.186Z,94.90
2019-05-03T08:01:36.176Z,94.20
2019-05-03T08:04:05.723Z,94.70
2019-05-03T08:06:35.106Z,94.30
2019-05-03T08:09:06.812Z,94.00
2019-05-03T08:11:36.927Z,93.90
2019-05-03T08:14:07.918Z,94.30
2019-05-03T08:16:37.285Z,94.60
2019-05-03T08:19:06.597Z,93.60
2019-05-03T08:21:38.071Z,94.00
2019-05-03T08:24:09.691Z,93.80
2019-05-03T08:26:39.025Z,93.80
2019-05-03T08:29:16.272Z,93.10
2019-05-03T08:32:00.207Z,93.30
2019-05-03T08:34:31.227Z,93.00
2019-05-03T08:37:02.366Z,92.90
2019-05-03T08:39:35.384Z,92.90
2019-05-03T08:42:12.387Z,93.20
2019-05-03T08:44:42.550Z,93.40
2019-05-03T08:47:15.492Z,93.60
2019-05-03T08:49:45.112Z,93.70
2019-05-03T08:52:15.720Z,94.10
2019-05-03T08:54:45.177Z,94.20
2019-05-03T08:57:15.097Z,94.00
2019-05-03T08:59:44.693Z,93.80
2019-05-03T09:02:17.303Z,93.10
2019-05-03T09:04:46.266Z,92.70
2019-05-03T09:07:15.746Z,92.00
2019-05-03T09:09:46.703Z,91.80
2019-05-03T09:12:16.220Z,92.10
2019-05-03T09:14:48.290Z,91.80
2019-05-03T09:17:16.512Z,91.60
2019-05-03T09:19:45.811Z,91.50
2019-05-03T09:22:15.124Z,91.60
2019-05-03T09:24:45.536Z,91.90
2019-05-03T09:27:15.572Z,91.60
2019-05-03T09:29:47.959Z,91.40
2019-05-03T09:32:20.303Z,92.30
2019-05-03T09:34:49.650Z,92.00
2019-05-03T09:37:18.940Z,90.50
2019-05-03T09:39:48.248Z,91.00
2019-05-03T09:42:17.569Z,91.40
2019-05-03T09:44:46.948Z,91.00
2019-05-03T09:47:16.377Z,90.40
2019-05-03T09:49:45.780Z,90.60
2019-05-03T09:52:16.116Z,91.10
2019-05-03T09:54:47.235Z,90.90
2019-05-03T09:57:16.541Z,90.90
2019-05-03T09:59:58.340Z,91.20
2019-05-03T10:02:19.859Z,91.20
2019-05-03T10:04:49.247Z,90.70
2019-05-03T10:07:18.567Z,91.00
2019-05-03T10:09:47.919Z,91.00
2019-05-03T10:12:19.339Z,91.20
2019-05-03T10:14:49.272Z,91.70
2019-05-03T10:17:25.211Z,91.40
2019-05-03T10:19:54.789Z,91.50
2019-05-03T10:22:29.079Z,91.50
2019-05-03T10:24:58.545Z,91.20
2019-05-03T10:27:29.573Z,91.00
2019-05-03T10:30:10.597Z,90.50
2019-05-03T10:32:35.505Z,90.70
2019-05-03T10:35:08.103Z,90.90
2019-05-03T10:37:37.563Z,90.80
2019-05-03T10:40:08.383Z,90.40
2019-05-03T10:42:38.226Z,90.90
2019-05-03T10:45:10.371Z,90.70
2019-05-03T10:47:39.675Z,90.00
2019-05-03T10:50:12.443Z,90.90
2019-05-03T10:52:44.630Z,90.10
2019-05-03T10:55:15.946Z,90.60
2019-05-03T10:57:49.575Z,90.10
2019-05-03T11:00:42.361Z,90.30
2019-05-03T11:02:56.647Z,90.20
2019-05-03T11:05:25.950Z,90.70
2019-05-03T11:07:55.676Z,90.20
2019-05-03T11:10:25.358Z,90.10
2019-05-03T11:12:54.900Z,89.00
2019-05-03T11:15:25.836Z,89.20
2019-05-03T11:17:55.336Z,89.60
2019-05-03T11:20:34.618Z,89.40
2019-05-03T11:23:06.359Z,90.00
2019-05-03T11:25:36.563Z,89.50
2019-05-03T11:28:10.835Z,88.40
2019-05-03T11:30:52.246Z,89.30
2019-05-03T11:33:21.623Z,87.40
2019-05-03T11:35:58.626Z,86.50
2019-05-03T11:38:29.875Z,86.80
2019-05-03T11:41:00.156Z,87.90
2019-05-03T11:43:31.931Z,87.30
2019-05-03T11:46:02.473Z,87.30
2019-05-03T11:48:36.371Z,87.40
2019-05-03T11:51:08.463Z,86.90
2019-05-03T11:53:40.411Z,86.20
2019-05-03T11:56:09.747Z,85.30
2019-05-03T11:58:39.094Z,85.10
2019-05-03T12:01:15.937Z,86.00
2019-05-03T12:03:44.879Z,85.40
2019-05-03T12:06:15.733Z,85.70
2019-05-03T12:08:45.621Z,83.60
2019-05-03T12:11:15.201Z,84.80
2019-05-03T12:13:47.513Z,84.10
2019-05-03T12:16:26.780Z,85.00
2019-05-03T12:18:54.137Z,85.60
2019-05-03T12:21:23.117Z,85.00
2019-05-03T12:23:53.998Z,85.40
2019-05-03T12:26:27.119Z,83.30
2019-05-03T12:28:55.084Z,85.00
2019-05-03T12:31:36.174Z,85.20
2019-05-03T12:33:55.581Z,83.70
2019-05-03T12:36:24.956Z,84.80
2019-05-03T12:38:54.775Z,82.70
2019-05-03T12:41:25.445Z,82.00
2019-05-03T12:43:55.238Z,83.50
2019-05-03T12:46:26.217Z,82.00
2019-05-03T12:48:55.730Z,82.90
2019-05-03T12:51:25.348Z,82.10
2019-05-03T12:53:55.260Z,82.40
2019-05-03T12:56:32.326Z,82.30
2019-05-03T12:58:58.300Z,80.90
2019-05-03T13:01:41.632Z,82.50
2019-05-03T13:04:25.860Z,82.10
2019-05-03T13:06:56.927Z,81.50
2019-05-03T13:09:27.098Z,81.30
2019-05-03T13:11:59.399Z,81.40
2019-05-03T13:14:29.177Z,82.00
2019-05-03T13:16:58.582Z,83.00
2019-05-03T13:19:29.744Z,83.00
2019-05-03T13:21:59.186Z,83.10
2019-05-03T13:24:31.177Z,83.60
2019-05-03T13:27:00.499Z,83.70
2019-05-03T13:29:29.894Z,81.80
2019-05-03T13:32:02.048Z,80.20
2019-05-03T13:34:30.192Z,81.20
2019-05-03T13:36:59.550Z,79.80
2019-05-03T13:39:28.839Z,81.00
2019-05-03T13:41:58.140Z,80.20
2019-05-03T13:44:27.434Z,80.10
2019-05-03T13:46:56.802Z,79.00
2019-05-03T13:49:26.635Z,79.00
2019-05-03T13:51:55.966Z,80.90
2019-05-03T13:54:25.562Z,79.80
2019-05-03T13:56:55.288Z,79.00
2019-05-03T13:59:24.773Z,79.40
2019-05-03T14:01:54.716Z,79.20
2019-05-03T14:04:24.037Z,78.20
2019-05-03T14:06:55.221Z,79.40
2019-05-03T14:09:25.129Z,80.60
2019-05-03T14:11:55.325Z,79.90
2019-05-03T14:14:25.875Z,77.40
2019-05-03T14:16:55.367Z,80.00
2019-05-03T14:19:26.360Z,80.30
2019-05-03T14:21:57.290Z,79.90
2019-05-03T14:24:26.662Z,80.10
2019-05-03T14:26:56.074Z,77.90
2019-05-03T14:29:25.397Z,77.80
2019-05-03T14:31:54.796Z,77.50
2019-05-03T14:34:25.723Z,77.60
2019-05-03T14:36:55.543Z,78.00
2019-05-03T14:39:25.410Z,78.10
2019-05-03T14:41:55.556Z,78.10
2019-05-03T14:44:25.315Z,79.30
2019-05-03T14:46:58.810Z,78.60
2019-05-03T14:49:26.686Z,77.80
2019-05-03T14:51:57.221Z,78.90
2019-05-03T14:54:31.166Z,78.00
2019-05-03T14:57:04.899Z,77.60
2019-05-03T14:59:54.719Z,77.70
2019-05-03T15:02:39.812Z,78.00
2019-05-03T15:04:56.803Z,78.10
2019-05-03T15:07:26.788Z,78.00
2019-05-03T15:09:56.142Z,76.60
2019-05-03T15:12:25.490Z,77.70
2019-05-03T15:14:55.795Z,76.00
2019-05-03T15:17:25.194Z,76.00
2019-05-03T15:19:57.233Z,76.60
2019-05-03T15:22:26.674Z,77.70
2019-05-03T15:24:56.015Z,78.20
2019-05-03T15:27:25.428Z,77.90
2019-05-03T15:29:55.547Z,78.10
2019-05-03T15:32:25.217Z,78.50
2019-05-03T15:34:57.276Z,78.80
2019-05-03T15:37:26.665Z,79.90
2019-05-03T15:39:58.938Z,79.30
2019-05-03T15:42:28.523Z,79.20
2019-05-03T15:45:15.912Z,79.80
2019-05-03T15:48:01.449Z,80.80
2019-05-03T15:50:30.746Z,81.50
2019-05-03T15:53:00.112Z,79.80
2019-05-03T15:55:32.052Z,79.10
2019-05-03T15:58:01.425Z,79.70
2019-05-03T16:00:30.714Z,80.50
2019-05-03T16:03:08.015Z,80.90
2019-05-03T16:05:31.080Z,80.00
2019-05-03T16:08:00.397Z,79.50
2019-05-03T16:10:29.904Z,78.80
2019-05-03T16:12:59.202Z,78.40
2019-05-03T16:15:28.484Z,79.00
2019-05-03T16:18:00.556Z,79.90
2019-05-03T16:20:29.946Z,80.30
2019-05-03T16:22:59.255Z,80.30
2019-05-03T16:25:28.564Z,79.80
2019-05-03T16:28:05.986Z,79.60
2019-05-03T16:30:40.026Z,79.40
2019-05-03T16:33:23.937Z,79.50
2019-05-03T16:35:44.383Z,79.20
2019-05-03T16:38:15.552Z,79.60
2019-05-03T16:40:45.139Z,79.80
2019-05-03T16:43:16.238Z,79.70
2019-05-03T16:45:45.707Z,80.10
2019-05-03T16:48:16.102Z,80.40
2019-05-03T16:50:46.078Z,80.70
2019-05-03T16:53:15.386Z,80.80
2019-05-03T16:55:44.797Z,81.00
2019-05-03T16:58:14.932Z,80.60
2019-05-03T17:00:45.274Z,80.70
2019-05-03T17:03:17.108Z,81.10
2019-05-03T17:05:56.394Z,81.30
2019-05-03T17:08:27.610Z,81.60
2019-05-03T17:11:05.636Z,82.10
2019-05-03T17:13:37.879Z,81.20
2019-05-03T17:16:09.450Z,81.30
2019-05-03T17:18:41.828Z,80.70
2019-05-03T17:21:11.133Z,80.80
2019-05-03T17:23:40.427Z,80.90
2019-05-03T17:26:09.709Z,81.00
2019-05-03T17:28:39.013Z,80.80
2019-05-03T17:31:08.317Z,80.40
2019-05-03T17:33:37.598Z,81.10
2019-05-03T17:36:06.967Z,81.20
2019-05-03T17:38:36.260Z,81.50
2019-05-03T17:41:23.208Z,81.50
2019-05-03T17:43:54.565Z,81.70
2019-05-03T17:46:26.648Z,81.00
2019-05-03T17:48:56.896Z,80.70
2019-05-03T17:51:41.107Z,80.60
2019-05-03T17:54:26.917Z,80.60
2019-05-03T17:57:00.649Z,81.60
2019-05-03T17:59:46.768Z,81.30
2019-05-03T18:02:26.373Z,81.10
2019-05-03T18:05:14.662Z,81.10
2019-05-03T18:07:48.748Z,81.40
2019-05-03T18:10:20.198Z,82.10
2019-05-03T18:12:50.517Z,81.60
2019-05-03T18:15:19.833Z,81.50
2019-05-03T18:17:49.731Z,81.50
2019-05-03T18:20:19.063Z,81.50
2019-05-03T18:22:54.502Z,81.60
2019-05-03T18:25:24.879Z,81.60
2019-05-03T18:27:57.121Z,81.70
2019-05-03T18:30:27.177Z,81.90
2019-05-03T18:33:02.341Z,81.80
2019-05-03T18:35:31.643Z,82.50
2019-05-03T18:38:00.930Z,81.90
2019-05-03T18:40:31.647Z,81.80
2019-05-03T18:43:04.436Z,81.90
2019-05-03T18:45:54.600Z,82.20
2019-05-03T18:48:26.601Z,82.10
2019-05-03T18:50:55.976Z,82.10
2019-05-03T18:53:25.473Z,82.10
2019-05-03T18:55:56.898Z,82.20
2019-05-03T18:58:26.303Z,82.20
2019-05-03T19:00:55.680Z,81.90
2019-05-03T19:03:27.679Z,81.80
2019-05-03T19:05:58.765Z,82.00
2019-05-03T19:08:35.662Z,82.20
2019-05-03T19:11:12.530Z,82.10
2019-05-03T19:13:49.395Z,82.20
2019-05-03T19:16:36.423Z,82.20
2019-05-03T19:19:08.713Z,82.40
2019-05-03T19:21:38.013Z,82.30
2019-05-03T19:24:07.486Z,82.50
2019-05-03T19:26:36.787Z,82.90
2019-05-03T19:29:07.202Z,82.90
2019-05-03T19:31:36.735Z,83.00
2019-05-03T19:34:06.201Z,83.00
2019-05-03T19:36:37.357Z,83.10
2019-05-03T19:39:07.200Z,83.20
2019-05-03T19:41:36.500Z,83.20
2019-05-03T19:44:05.873Z,83.20
2019-05-03T19:46:35.255Z,83.50
2019-05-03T19:49:05.072Z,83.90
2019-05-03T19:51:36.588Z,84.00
2019-05-03T19:54:05.565Z,84.60
2019-05-03T19:56:34.944Z,84.60
2019-05-03T19:59:05.895Z,84.40
2019-05-03T20:01:36.841Z,84.30
2019-05-03T20:04:10.503Z,84.60
2019-05-03T20:06:50.423Z,85.10
2019-05-03T20:09:24.581Z,84.90
2019-05-03T20:11:55.218Z,84.60
2019-05-03T20:14:25.765Z,84.70
2019-05-03T20:16:55.241Z,84.70
2019-05-03T20:19:25.676Z,84.70
2019-05-03T20:21:56.695Z,84.70
2019-05-03T20:24:26.276Z,84.80
2019-05-03T20:26:55.681Z,84.90
2019-05-03T20:29:25.184Z,84.50
2019-05-03T20:31:56.069Z,84.70
2019-05-03T20:34:25.469Z,85.00
2019-05-03T20:36:57.761Z,84.90
2019-05-03T20:39:27.162Z,85.20
2019-05-03T20:41:56.543Z,84.70
2019-05-03T20:44:35.926Z,85.10
2019-05-03T20:47:14.828Z,85.10
2019-05-03T20:49:45.352Z,85.00
2019-05-03T20:52:15.285Z,85.60
2019-05-03T20:54:45.672Z,85.40
2019-05-03T20:57:14.981Z,85.30
2019-05-03T20:59:48.697Z,85.20
2019-05-03T21:02:18.441Z,85.10
2019-05-03T21:04:49.078Z,85.30
2019-05-03T21:07:18.482Z,85.50
2019-05-03T21:09:50.952Z,85.20
2019-05-03T21:12:20.252Z,85.20
2019-05-03T21:14:51.059Z,85.20
2019-05-03T21:17:22.011Z,85.30
2019-05-03T21:19:56.697Z,85.60
2019-05-03T21:22:30.095Z,86.20
2019-05-03T21:25:01.046Z,86.00
2019-05-03T21:27:30.519Z,86.20
2019-05-03T21:29:59.895Z,86.10
2019-05-03T21:32:29.291Z,86.50
2019-05-03T21:34:58.587Z,86.30
2019-05-03T21:37:27.879Z,86.50
2019-05-03T21:39:58.655Z,86.50
2019-05-03T21:42:27.952Z,86.60
2019-05-03T21:44:57.251Z,88.80
2019-05-03T21:47:31.015Z,88.50
2019-05-03T21:50:01.275Z,89.10
2019-05-03T21:52:30.583Z,90.10
2019-05-03T21:54:59.880Z,90.20
2019-05-03T21:57:29.209Z,90.60
2019-05-03T21:59:58.563Z,90.50
2019-05-03T22:02:27.867Z,90.40
2019-05-03T22:04:57.156Z,90.50
2019-05-03T22:07:26.796Z,91.20
2019-05-03T22:09:56.272Z,91.60
2019-05-03T22:12:25.570Z,91.30
2019-05-03T22:14:56.571Z,92.30
2019-05-03T22:17:42.387Z,93.30
2019-05-03T22:20:16.314Z,94.00
2019-05-03T22:22:47.255Z,93.70
2019-05-03T22:25:18.271Z,94.70
2019-05-03T22:27:49.281Z,94.50
2019-05-03T22:30:18.561Z,95.10
2019-05-03T22:32:49.640Z,94.80
2019-05-03T22:35:18.991Z,95.10
2019-05-03T22:37:48.279Z,95.50
2019-05-03T22:40:17.594Z,95.50
2019-05-03T22:42:46.890Z,95.30
2019-05-03T22:45:16.354Z,96.60
2019-05-03T22:47:45.645Z,96.40
2019-05-03T22:50:15.081Z,95.90
2019-05-03T22:52:45.490Z,96.20
2019-05-03T22:55:15.290Z,96.30
2019-05-03T22:57:44.722Z,96.30
2019-05-03T23:00:14.664Z,96.40
2019-05-03T23:02:45.564Z,97.10
2019-05-03T23:05:15.110Z,96.90
2019-05-03T23:07:46.899Z,97.60
2019-05-03T23:10:17.480Z,97.30
2019-05-03T23:12:46.457Z,97.50
2019-05-03T23:15:15.898Z,97.40
2019-05-03T23:17:45.261Z,97.80
2019-05-03T23:20:19.478Z,97.50
2019-05-03T23:22:48.787Z,97.30
2019-05-03T23:25:18.173Z,97.50
2019-05-03T23:27:47.621Z,97.60
2019-05-03T23:30:17.650Z,98.10
2019-05-03T23:32:48.647Z,97.90
2019-05-03T23:35:28.702Z,98.20
2019-05-03T23:37:57.993Z,98.50
2019-05-03T23:40:27.350Z,98.30
2019-05-03T23:42:56.647Z,99.10
2019-05-03T23:45:27.649Z,99.10
2019-05-03T23:47:58.667Z,99.10
2019-05-03T23:50:27.950Z,98.90
2019-05-03T23:52:57.344Z,98.90
2019-05-03T23:55:28.347Z,98.50
2019-05-03T23:57:57.638Z,98.40
